Terminal Aerodrome Forecast
Issued by NWS

Home | Current Version | Previous Version | Graphics & Text | Print | Product List | Glossary On
Versions: 1 2 3 4 5 6 7 8 9 10 11 12 13 14 15 16 17 18
000
FTUS43 KICT 231734
TAFSLN
TAF
KSLN 231734Z 2318/2418 18020G28KT P6SM SCT070
     FM240100 16015KT P6SM FEW200
     FM241400 18015G25KT P6SM SCT040=

USA.gov is the U.S. government's official web portal to all federal, state and local government web resources and services.